KSBD/SBD METAR and TAF weather

Enter ICAO airport designator
Station Type Date Time Source
KSBD METAR 2020/01/17 13:44 UTC NOAA

KSBD 171344Z AUTO 00000KT 10SM SCT010 BKN032 OVC042 10/07 A3015 RMK AO2 T00960065


Station Type Date Time Source
KSBD Decoded METAR 2020/01/17 13:44 UTC NOAA

Norton Air Force Base / San Bern, CA, United States (KSBD) 34-06N 117-14W
Jan 17, 2020 - 08:44 AM EST / 2020.01.17 1344 UTC
Wind: Calm:0
Visibility: 10 mile(s):0
Sky conditions: overcast
Temperature: 49.3 F (9.6 C)
Dew Point: 43.7 F (6.5 C)
Relative Humidity: 80%
Pressure (altimeter): 30.15 in. Hg (1020 hPa)
ob: KSBD 171344Z AUTO 00000KT 10SM SCT010 BKN032 OVC042 10/07 A3015 RMK AO2 T00960065
cycle: 13

Station Type Date Time Source
KSBD TAF 2020/01/17 12:42 UTC NOAA

TAF KSBD 171140Z 1712/1812 11005KT P6SM -DZ OVC016
FM171400 VRB04KT 6SM HZ FEW025

Example: see airport list